createdAt,value
2023-03-22T00:00:19.647Z,12.04
2023-03-22T00:02:47.258Z,12.04
2023-03-22T00:05:16.306Z,12.03
2023-03-22T00:07:43.896Z,12.00
2023-03-22T00:10:12.033Z,12.01
2023-03-22T00:12:39.519Z,12.06
2023-03-22T00:15:08.152Z,12.08
2023-03-22T00:17:36.629Z,12.06
2023-03-22T00:20:06.292Z,12.02
2023-03-22T00:22:35.152Z,12.02
2023-03-22T00:25:02.668Z,12.04
2023-03-22T00:27:30.454Z,12.09
2023-03-22T00:29:57.997Z,12.09
2023-03-22T00:32:25.713Z,12.07
2023-03-22T00:34:53.282Z,12.04
2023-03-22T00:37:20.898Z,11.99
2023-03-22T00:39:49.829Z,11.93
2023-03-22T00:42:17.366Z,11.87
2023-03-22T00:44:44.914Z,11.87
2023-03-22T00:47:12.481Z,11.88
2023-03-22T00:49:40.057Z,11.84
2023-03-22T00:52:07.603Z,11.77
2023-03-22T00:54:35.143Z,11.70
2023-03-22T00:57:04.169Z,11.62
2023-03-22T00:59:31.799Z,11.54
2023-03-22T01:01:59.310Z,11.51
2023-03-22T01:04:26.965Z,11.49
2023-03-22T01:06:59.272Z,11.51
2023-03-22T01:09:28.303Z,11.46
2023-03-22T01:11:56.290Z,11.40
2023-03-22T01:14:26.144Z,11.33
2023-03-22T01:16:54.905Z,11.25
2023-03-22T01:19:22.499Z,11.16
2023-03-22T01:21:50.208Z,11.06
2023-03-22T01:24:17.779Z,10.97
2023-03-22T01:26:45.390Z,10.95
2023-03-22T01:29:13.109Z,10.93
2023-03-22T01:31:42.285Z,10.92
2023-03-22T01:34:10.253Z,10.90
2023-03-22T01:36:38.096Z,10.85
2023-03-22T01:39:05.824Z,10.79
2023-03-22T01:41:35.050Z,10.74
2023-03-22T01:44:13.940Z,10.66
2023-03-22T01:46:44.632Z,10.55
2023-03-22T01:49:16.059Z,10.46
2023-03-22T01:51:46.055Z,10.37
2023-03-22T01:54:17.935Z,10.31
2023-03-22T01:56:45.962Z,10.24
2023-03-22T01:59:15.976Z,10.17
2023-03-22T02:01:47.087Z,10.12
2023-03-22T02:04:20.001Z,10.09
2023-03-22T02:06:48.453Z,10.04
2023-03-22T02:09:21.967Z,9.98
2023-03-22T02:11:59.303Z,9.89
2023-03-22T02:14:39.365Z,9.85
2023-03-22T02:17:21.089Z,9.81
2023-03-22T02:20:16.439Z,9.78
2023-03-22T02:23:02.287Z,9.75
2023-03-22T02:26:03.394Z,9.70
2023-03-22T02:28:42.149Z,9.65
2023-03-22T02:31:38.278Z,9.62
2023-03-22T03:13:39.230Z,9.14
2023-03-22T03:16:08.372Z,9.09
2023-03-22T03:18:45.808Z,9.07
2023-03-22T03:21:30.178Z,9.04
2023-03-22T03:24:08.674Z,8.97
2023-03-22T03:26:44.753Z,8.95
2023-03-22T03:29:18.993Z,8.95
2023-03-22T03:31:51.429Z,8.97
2023-03-22T03:34:23.209Z,9.05
2023-03-22T03:36:57.699Z,9.13
2023-03-22T03:39:27.661Z,9.13
2023-03-22T03:41:56.757Z,9.14
2023-03-22T03:44:25.844Z,9.11
2023-03-22T03:46:54.847Z,9.07
2023-03-22T03:49:24.240Z,9.00
2023-03-22T03:51:54.454Z,8.95
2023-03-22T03:54:23.019Z,8.91
2023-03-22T03:56:50.956Z,8.90
2023-03-22T03:59:20.873Z,8.93
2023-03-22T04:01:52.465Z,8.97
2023-03-22T04:04:26.476Z,9.00
2023-03-22T04:06:56.800Z,9.02
2023-03-22T04:09:25.200Z,9.02
2023-03-22T04:11:52.710Z,9.01
2023-03-22T04:14:20.325Z,8.99
2023-03-22T04:16:49.210Z,8.93
2023-03-22T04:19:16.906Z,8.89
2023-03-22T04:21:44.579Z,8.84
2023-03-22T04:24:12.740Z,8.82
2023-03-22T04:26:40.761Z,8.82
2023-03-22T04:29:08.546Z,8.85
2023-03-22T04:31:36.878Z,8.91
2023-03-22T04:34:06.413Z,8.95
2023-03-22T04:36:36.385Z,8.95
2023-03-22T04:39:05.967Z,8.94
2023-03-22T04:41:33.554Z,8.95
2023-03-22T04:44:03.206Z,8.98
2023-03-22T04:46:31.397Z,8.94
2023-03-22T04:48:59.225Z,8.96
2023-03-22T04:51:28.786Z,9.02
2023-03-22T04:53:56.335Z,9.02
2023-03-22T04:56:23.880Z,9.03
2023-03-22T04:58:51.547Z,9.05
2023-03-22T05:01:19.477Z,9.04
2023-03-22T05:03:47.452Z,9.01
2023-03-22T05:06:16.012Z,8.97
2023-03-22T05:08:45.050Z,8.88
2023-03-22T05:11:16.355Z,8.81
2023-03-22T05:13:44.474Z,8.77
2023-03-22T05:16:12.525Z,8.74
2023-03-22T05:18:42.457Z,8.70
2023-03-22T05:21:13.737Z,8.65
2023-03-22T05:23:41.967Z,8.57
2023-03-22T05:26:16.114Z,8.53
2023-03-22T05:28:44.707Z,8.48
2023-03-22T05:31:14.657Z,8.40
2023-03-22T05:33:42.476Z,8.35
2023-03-22T05:36:11.675Z,8.31
2023-03-22T05:38:39.570Z,8.31
2023-03-22T05:41:07.637Z,8.26
2023-03-22T05:43:36.499Z,8.20
2023-03-22T05:46:06.725Z,8.16
2023-03-22T05:48:34.424Z,8.16
2023-03-22T05:51:03.406Z,8.17
2023-03-22T05:53:31.859Z,8.22
2023-03-22T05:56:01.899Z,8.28
2023-03-22T05:58:30.640Z,8.32
2023-03-22T06:01:05.948Z,8.32
2023-03-22T06:03:33.533Z,8.36
2023-03-22T06:06:01.117Z,8.43
2023-03-22T06:08:28.671Z,8.49
2023-03-22T06:10:56.410Z,8.45
2023-03-22T06:13:23.933Z,8.47
2023-03-22T06:15:51.747Z,8.51
2023-03-22T06:18:20.769Z,8.53
2023-03-22T06:20:48.272Z,8.55
2023-03-22T06:23:15.812Z,8.58
2023-03-22T06:25:43.550Z,8.58
2023-03-22T06:28:11.080Z,8.61
2023-03-22T06:30:38.939Z,8.63
2023-03-22T06:33:06.955Z,8.68
2023-03-22T06:35:36.238Z,8.73
2023-03-22T06:38:03.897Z,8.75
2023-03-22T06:40:31.427Z,8.74
2023-03-22T06:43:01.628Z,8.77
2023-03-22T06:45:33.454Z,8.86
2023-03-22T06:48:01.536Z,8.97
2023-03-22T06:50:29.796Z,9.11
2023-03-22T06:52:58.686Z,9.30
2023-03-22T06:55:26.304Z,9.44
2023-03-22T06:57:53.797Z,9.57
2023-03-22T07:00:21.593Z,9.72
2023-03-22T07:02:50.921Z,9.89
2023-03-22T07:05:20.257Z,10.07
2023-03-22T07:07:47.833Z,10.25
2023-03-22T07:10:16.662Z,10.48
2023-03-22T07:12:44.203Z,10.72
2023-03-22T07:15:12.423Z,10.96
2023-03-22T07:17:39.931Z,11.16
2023-03-22T07:20:08.655Z,11.34
2023-03-22T07:22:36.226Z,11.60
2023-03-22T07:25:03.930Z,11.78
2023-03-22T07:27:32.793Z,11.98
2023-03-22T07:30:00.416Z,12.20
2023-03-22T07:32:27.965Z,12.48
2023-03-22T07:34:55.489Z,12.73
2023-03-22T07:37:23.203Z,12.99
2023-03-22T07:39:50.684Z,13.24
2023-03-22T07:42:18.214Z,13.52
2023-03-22T07:44:49.750Z,13.81
2023-03-22T07:47:22.146Z,14.10
2023-03-22T07:49:54.782Z,14.39
2023-03-22T07:52:22.326Z,14.77
2023-03-22T07:54:49.829Z,15.66
2023-03-22T07:57:17.319Z,17.65
2023-03-22T07:59:44.809Z,19.50
2023-03-22T08:02:13.828Z,20.75
2023-03-22T08:04:41.373Z,21.78
2023-03-22T08:07:10.104Z,22.84
2023-03-22T08:09:37.976Z,23.90
2023-03-22T08:12:06.216Z,24.66
2023-03-22T08:14:37.087Z,25.32
2023-03-22T08:17:05.063Z,26.08
2023-03-22T08:19:34.204Z,26.70
2023-03-22T08:22:01.906Z,27.10
2023-03-22T08:24:29.390Z,27.39
2023-03-22T08:26:57.577Z,27.60
2023-03-22T08:29:25.217Z,27.81
2023-03-22T08:31:52.813Z,28.30
2023-03-22T08:34:20.396Z,28.67
2023-03-22T08:36:49.249Z,29.08
2023-03-22T08:39:16.807Z,29.29
2023-03-22T08:41:44.373Z,29.53
2023-03-22T08:44:11.964Z,29.63
2023-03-22T08:46:40.067Z,29.61
2023-03-22T08:49:10.377Z,29.62
2023-03-22T08:51:37.931Z,29.73
2023-03-22T08:54:08.088Z,30.02
2023-03-22T08:56:38.161Z,30.07
2023-03-22T08:59:06.564Z,30.20
2023-03-22T09:01:34.165Z,30.30
2023-03-22T09:04:02.110Z,30.27
2023-03-22T09:06:29.709Z,29.93
2023-03-22T09:08:57.642Z,28.97
2023-03-22T09:11:26.569Z,27.86
2023-03-22T09:13:54.060Z,26.93
2023-03-22T09:16:21.605Z,26.48
2023-03-22T09:18:49.152Z,26.27
2023-03-22T09:21:16.736Z,26.22
2023-03-22T09:23:47.835Z,26.47
2023-03-22T09:26:15.791Z,26.72
2023-03-22T09:28:46.820Z,26.78
2023-03-22T09:31:14.544Z,26.56
2023-03-22T09:33:42.427Z,26.19
2023-03-22T09:36:11.904Z,26.03
2023-03-22T09:38:39.514Z,26.09
2023-03-22T09:41:12.466Z,26.04
2023-03-22T09:43:43.448Z,25.93
2023-03-22T09:46:16.818Z,25.59
2023-03-22T09:48:48.346Z,25.07
2023-03-22T09:51:21.618Z,24.91
2023-03-22T09:53:49.158Z,24.81
2023-03-22T09:56:23.067Z,24.72
2023-03-22T09:58:57.252Z,24.84
2023-03-22T10:01:35.098Z,24.99
2023-03-22T10:04:27.182Z,25.04
2023-03-22T10:07:06.818Z,24.68
2023-03-22T10:09:40.289Z,24.33
2023-03-22T10:12:16.461Z,24.07
2023-03-22T10:14:50.742Z,24.30
2023-03-22T10:17:24.097Z,24.61
2023-03-22T10:19:56.367Z,24.72
2023-03-22T10:22:29.945Z,24.58
2023-03-22T10:24:58.935Z,24.74
2023-03-22T10:27:27.630Z,25.08
2023-03-22T10:29:59.293Z,25.27
2023-03-22T10:32:36.322Z,25.61
2023-03-22T10:35:07.110Z,25.96
2023-03-22T10:37:37.609Z,26.10
2023-03-22T10:40:07.941Z,26.38
2023-03-22T10:42:37.767Z,26.75
2023-03-22T10:45:09.398Z,27.11
2023-03-22T10:47:42.751Z,27.44
2023-03-22T10:50:16.710Z,27.48
2023-03-22T10:52:50.760Z,27.52
2023-03-22T10:55:18.605Z,27.37
2023-03-22T10:58:09.540Z,27.22
2023-03-22T11:00:40.599Z,27.19
2023-03-22T11:03:27.602Z,27.27
2023-03-22T11:06:08.036Z,27.18
2023-03-22T11:08:45.028Z,27.13
2023-03-22T11:11:24.204Z,27.29
2023-03-22T11:13:54.945Z,27.68
2023-03-22T11:16:23.903Z,27.96
2023-03-22T11:18:52.898Z,28.34
2023-03-22T11:21:24.032Z,28.58
2023-03-22T11:23:57.423Z,28.68
2023-03-22T11:26:31.958Z,28.66
2023-03-22T11:29:11.642Z,28.63
2023-03-22T11:31:56.324Z,28.42
2023-03-22T11:34:28.063Z,28.10
2023-03-22T11:36:57.532Z,27.69
2023-03-22T11:39:28.324Z,27.39
2023-03-22T11:42:01.129Z,27.07
2023-03-22T11:44:33.086Z,26.78
2023-03-22T11:47:01.852Z,26.74
2023-03-22T11:49:39.252Z,26.77
2023-03-22T11:52:12.596Z,26.60
2023-03-22T11:54:42.360Z,26.28
2023-03-22T11:57:16.987Z,26.17
2023-03-22T11:59:51.077Z,26.13
2023-03-22T12:02:24.667Z,26.14
2023-03-22T12:05:01.698Z,26.01
2023-03-22T12:07:33.739Z,25.86
2023-03-22T12:10:06.112Z,25.60
2023-03-22T12:12:37.817Z,25.05
2023-03-22T12:15:13.575Z,24.84
2023-03-22T12:17:46.319Z,24.81
2023-03-22T12:20:23.106Z,24.80
2023-03-22T12:22:54.785Z,24.43
2023-03-22T12:25:26.542Z,24.15
2023-03-22T12:27:57.089Z,23.80
2023-03-22T12:30:26.826Z,23.47
2023-03-22T12:33:01.537Z,23.35
2023-03-22T12:35:32.803Z,23.17
2023-03-22T12:38:07.735Z,22.93
2023-03-22T12:40:39.766Z,22.75
2023-03-22T12:43:15.376Z,22.69
2023-03-22T12:45:49.064Z,22.70
2023-03-22T12:48:20.704Z,22.75
2023-03-22T12:50:53.724Z,22.76
2023-03-22T12:53:23.753Z,22.66
2023-03-22T12:55:52.183Z,22.43
2023-03-22T12:58:22.483Z,22.11
2023-03-22T13:00:55.908Z,21.92
2023-03-22T13:03:28.811Z,21.70
2023-03-22T13:06:05.361Z,21.63
2023-03-22T13:09:15.590Z,21.64
2023-03-22T13:11:44.812Z,21.61
2023-03-22T13:14:34.834Z,21.68
2023-03-22T13:17:02.581Z,21.77
2023-03-22T13:19:34.600Z,21.89
2023-03-22T13:22:22.220Z,21.96
2023-03-22T13:25:07.196Z,21.98
2023-03-22T13:27:39.901Z,21.77
2023-03-22T13:30:17.818Z,21.57
2023-03-22T13:32:51.643Z,21.54
2023-03-22T13:35:24.553Z,21.56
2023-03-22T13:37:54.193Z,21.59
2023-03-22T13:40:33.985Z,21.65
2023-03-22T13:43:25.292Z,21.66
2023-03-22T13:46:12.803Z,21.67
2023-03-22T13:48:56.035Z,21.63
2023-03-22T13:51:31.095Z,21.56
2023-03-22T13:54:07.894Z,21.53
2023-03-22T13:56:53.311Z,21.50
2023-03-22T13:59:26.923Z,21.44
2023-03-22T14:01:58.347Z,21.29
2023-03-22T14:04:34.900Z,21.23
2023-03-22T14:07:08.128Z,21.15
2023-03-22T14:09:44.462Z,21.06
2023-03-22T14:12:19.063Z,21.05
2023-03-22T14:14:49.646Z,21.04
2023-03-22T14:17:28.064Z,21.06
2023-03-22T14:19:58.214Z,21.10
